createdAt,value
2018-02-12T00:00:21.402Z,51.20
2018-02-12T00:02:48.994Z,51.30
2018-02-12T00:05:17.327Z,51.40
2018-02-12T00:07:44.991Z,51.30
2018-02-12T00:10:12.662Z,51.30
2018-02-12T00:12:40.327Z,51.30
2018-02-12T00:15:07.912Z,51.30
2018-02-12T00:17:35.489Z,51.40
2018-02-12T00:20:03.812Z,51.40
2018-02-12T00:22:31.373Z,51.40
2018-02-12T00:24:59.038Z,51.50
2018-02-12T00:27:26.707Z,51.40
2018-02-12T00:29:54.361Z,51.50
2018-02-12T00:32:22.042Z,51.50
2018-02-12T00:34:49.618Z,51.50
2018-02-12T00:37:17.203Z,51.60
2018-02-12T00:39:45.638Z,51.50
2018-02-12T00:42:13.212Z,51.50
2018-02-12T00:44:40.873Z,52.10
2018-02-12T00:47:08.448Z,51.60
2018-02-12T00:49:36.893Z,51.50
2018-02-12T00:52:04.493Z,51.60
2018-02-12T00:54:32.079Z,51.60
2018-02-12T00:57:00.425Z,51.60
2018-02-12T00:59:27.993Z,51.60
2018-02-12T01:01:55.578Z,51.60
2018-02-12T01:04:24.000Z,51.70
2018-02-12T01:06:51.585Z,51.60
2018-02-12T01:09:19.227Z,51.60
2018-02-12T01:11:46.793Z,51.60
2018-02-12T01:14:14.356Z,51.60
2018-02-12T01:16:42.026Z,51.60
2018-02-12T01:19:09.596Z,51.60
2018-02-12T01:21:37.172Z,51.60
2018-02-12T01:24:05.623Z,51.80
2018-02-12T01:26:33.280Z,51.50
2018-02-12T01:29:00.860Z,51.50
2018-02-12T01:31:28.447Z,51.50
2018-02-12T01:33:56.892Z,51.60
2018-02-12T01:36:24.469Z,51.60
2018-02-12T01:38:52.061Z,51.70
2018-02-12T01:41:20.387Z,51.80
2018-02-12T01:43:48.753Z,51.70
2018-02-12T01:46:33.506Z,51.70
2018-02-12T01:49:01.181Z,51.70
2018-02-12T01:51:28.830Z,51.70
2018-02-12T01:53:56.925Z,51.70
2018-02-12T01:56:24.491Z,51.70
2018-02-12T01:58:52.151Z,51.80
2018-02-12T02:01:19.739Z,51.80
2018-02-12T02:03:47.308Z,51.80
2018-02-12T02:06:15.738Z,52.20
2018-02-12T02:08:43.312Z,51.80
2018-02-12T02:11:18.021Z,51.90
2018-02-12T02:13:45.905Z,51.80
2018-02-12T02:16:13.483Z,51.90
2018-02-12T02:18:41.068Z,51.90
2018-02-12T02:21:09.749Z,51.90
2018-02-12T02:23:37.314Z,51.80
2018-02-12T02:26:09.455Z,51.90
2018-02-12T02:28:37.062Z,51.90
2018-02-12T02:31:05.488Z,52.00
2018-02-12T02:33:33.151Z,51.80
2018-02-12T02:36:00.846Z,51.90
2018-02-12T02:38:49.975Z,51.90
2018-02-12T02:41:17.634Z,52.20
2018-02-12T02:43:45.727Z,51.90
2018-02-12T02:46:13.311Z,51.90
2018-02-12T02:48:42.195Z,52.00
2018-02-12T02:51:09.774Z,52.00
2018-02-12T02:53:38.285Z,52.00
2018-02-12T02:56:05.958Z,52.00
2018-02-12T02:58:33.529Z,52.00
2018-02-12T03:01:01.103Z,52.00
2018-02-12T03:03:36.542Z,52.00
2018-02-12T03:06:04.127Z,52.00
2018-02-12T03:08:31.694Z,52.00
2018-02-12T03:10:59.279Z,52.00
2018-02-12T03:13:27.684Z,52.00
2018-02-12T03:16:12.823Z,52.00
2018-02-12T03:18:41.160Z,52.00
2018-02-12T03:21:08.763Z,52.00
2018-02-12T03:23:38.036Z,52.00
2018-02-12T03:26:05.843Z,52.00
2018-02-12T03:28:54.526Z,52.10
2018-02-12T03:31:22.196Z,52.10
2018-02-12T03:33:49.896Z,52.10
2018-02-12T03:36:17.522Z,52.10
2018-02-12T03:38:45.125Z,52.10
2018-02-12T03:41:13.566Z,52.70
2018-02-12T03:43:41.144Z,52.10
2018-02-12T03:46:08.726Z,52.10
2018-02-12T03:48:37.160Z,52.20
2018-02-12T03:51:04.727Z,52.20
2018-02-12T03:53:39.614Z,52.20
2018-02-12T03:56:07.936Z,52.20
2018-02-12T03:58:35.592Z,52.20
2018-02-12T04:01:03.176Z,52.10
2018-02-12T04:03:30.871Z,52.10
2018-02-12T04:06:14.970Z,52.50
2018-02-12T04:08:42.649Z,52.20
2018-02-12T04:11:10.289Z,52.20
2018-02-12T04:13:38.071Z,52.20
2018-02-12T04:16:05.637Z,52.20
2018-02-12T04:18:33.295Z,52.20
2018-02-12T04:21:00.957Z,52.20
2018-02-12T04:23:28.613Z,52.30
2018-02-12T04:25:56.179Z,52.20
2018-02-12T04:28:23.771Z,52.30
2018-02-12T04:30:51.388Z,52.20
2018-02-12T04:33:18.946Z,52.20
2018-02-12T04:35:46.625Z,52.20
2018-02-12T04:38:14.198Z,52.20
2018-02-12T04:40:41.762Z,52.10
2018-02-12T04:43:09.396Z,52.00
2018-02-12T04:45:51.172Z,52.00
2018-02-12T04:48:18.867Z,51.90
2018-02-12T04:50:46.423Z,51.80
2018-02-12T04:53:14.392Z,51.70
2018-02-12T04:55:41.960Z,51.60
2018-02-12T04:58:12.585Z,51.50
2018-02-12T05:00:40.285Z,51.40
2018-02-12T05:03:07.874Z,51.30
2018-02-12T05:05:35.559Z,51.20
2018-02-12T05:08:03.124Z,51.20
2018-02-12T05:10:30.797Z,51.20
2018-02-12T05:12:58.362Z,51.30
2018-02-12T05:15:25.926Z,51.30
2018-02-12T05:17:53.626Z,51.40
2018-02-12T05:20:21.240Z,51.30
2018-02-12T05:22:48.906Z,51.40
2018-02-12T05:25:16.568Z,51.40
2018-02-12T05:27:44.129Z,51.40
2018-02-12T05:30:11.681Z,51.40
2018-02-12T05:32:39.265Z,51.40
2018-02-12T05:35:06.930Z,51.40
2018-02-12T05:37:34.514Z,51.40
2018-02-12T05:40:02.100Z,51.30
2018-02-12T05:42:29.658Z,51.90
2018-02-12T05:44:58.079Z,51.10
2018-02-12T05:47:25.672Z,51.10
2018-02-12T05:49:53.296Z,51.10
2018-02-12T05:52:20.860Z,51.10
2018-02-12T05:54:48.449Z,51.10
2018-02-12T05:57:16.049Z,51.20
2018-02-12T05:59:43.605Z,51.20
2018-02-12T06:02:11.212Z,51.20
2018-02-12T06:04:38.881Z,51.30
2018-02-12T06:07:06.462Z,51.30
2018-02-12T06:09:34.057Z,51.30
2018-02-12T06:12:01.638Z,51.20
2018-02-12T06:14:29.315Z,51.20
2018-02-12T06:16:56.977Z,51.20
2018-02-12T06:19:24.628Z,51.20
2018-02-12T06:21:52.302Z,51.20
2018-02-12T06:24:19.875Z,51.10
2018-02-12T06:26:47.437Z,51.00
2018-02-12T06:29:14.999Z,51.00
2018-02-12T06:31:42.648Z,51.00
2018-02-12T06:34:10.216Z,51.00
2018-02-12T06:36:37.784Z,51.10
2018-02-12T06:39:05.370Z,51.20
2018-02-12T06:41:33.792Z,51.20
2018-02-12T06:44:01.353Z,51.10
2018-02-12T06:46:28.935Z,51.10
2018-02-12T06:48:56.505Z,51.10
2018-02-12T06:51:24.065Z,51.10
2018-02-12T06:53:51.657Z,51.10
2018-02-12T06:56:20.094Z,51.20
2018-02-12T06:58:47.781Z,51.10
2018-02-12T07:01:15.422Z,51.00
2018-02-12T07:03:43.005Z,51.00
2018-02-12T07:06:11.328Z,51.10
2018-02-12T07:09:16.188Z,52.90
2018-02-12T07:11:44.003Z,53.30
2018-02-12T07:14:12.974Z,54.00
2018-02-12T07:16:40.596Z,53.90
2018-02-12T07:43:04.840Z,54.10
2018-02-12T07:52:30.692Z,54.30
2018-02-12T07:55:14.148Z,54.00
2018-02-12T07:57:41.734Z,54.00
2018-02-12T08:00:09.314Z,53.60
2018-02-12T08:02:36.890Z,53.40
2018-02-12T08:05:04.487Z,53.20
2018-02-12T08:18:26.658Z,52.80
2018-02-12T08:20:54.271Z,52.70
2018-02-12T08:23:21.879Z,52.60
2018-02-12T08:25:49.458Z,52.50
2018-02-12T08:28:17.786Z,52.40
2018-02-12T08:30:45.403Z,52.40
2018-02-12T08:33:12.997Z,52.30
2018-02-12T08:35:40.580Z,52.30
2018-02-12T08:38:08.409Z,52.20
2018-02-12T08:40:35.981Z,52.20
2018-02-12T08:43:03.584Z,52.20
2018-02-12T08:45:31.185Z,52.20
2018-02-12T09:05:57.324Z,54.60
2018-02-12T09:08:25.679Z,54.40
2018-02-12T09:10:53.275Z,54.40
2018-02-12T09:13:20.889Z,48.40
2018-02-12T09:15:48.485Z,52.10
2018-02-12T09:18:16.837Z,52.30
2018-02-12T09:20:44.436Z,52.30
2018-02-12T09:23:12.064Z,52.30
2018-02-12T09:25:39.673Z,52.20
2018-02-12T09:46:06.950Z,42.20
2018-02-12T09:50:02.848Z,50.40
2018-02-12T09:52:30.520Z,37.60
2018-02-12T09:55:53.956Z,34.30
2018-02-12T09:58:21.557Z,40.80
2018-02-12T10:04:12.704Z,46.00
2018-02-12T10:10:09.465Z,46.10
2018-02-12T10:12:37.797Z,45.70
2018-02-12T10:18:27.923Z,45.80
2018-02-12T10:20:55.512Z,46.10
2018-02-12T10:23:34.494Z,46.30
2018-02-12T10:26:02.079Z,46.40
2018-02-12T10:28:29.769Z,46.50
2018-02-12T10:31:20.788Z,46.90
2018-02-12T10:33:49.127Z,46.80
2018-02-12T10:36:16.706Z,46.70
2018-02-12T10:38:44.307Z,46.70
2018-02-12T10:41:11.890Z,46.70
2018-02-12T10:43:39.489Z,46.80
2018-02-12T10:46:07.096Z,46.90
2018-02-12T10:48:34.676Z,46.50
2018-02-12T10:51:02.274Z,47.20
2018-02-12T10:53:51.038Z,47.30
2018-02-12T10:56:19.373Z,47.70
2018-02-12T10:58:46.970Z,47.70
2018-02-12T11:01:35.499Z,47.70
2018-02-12T11:04:03.103Z,48.10
2018-02-12T11:06:31.449Z,47.70
2018-02-12T11:08:59.044Z,47.60
2018-02-12T11:11:27.391Z,47.90
2018-02-12T11:14:11.943Z,47.90
2018-02-12T11:16:39.506Z,48.00
2018-02-12T11:19:07.080Z,47.90
2018-02-12T11:21:34.710Z,47.90
2018-02-12T11:24:02.291Z,48.10
2018-02-12T11:26:29.890Z,48.00
2018-02-12T11:28:58.249Z,48.00
2018-02-12T11:31:25.819Z,47.90
2018-02-12T11:33:54.152Z,47.90
2018-02-12T11:36:21.763Z,47.80
2018-02-12T11:38:57.783Z,47.90
2018-02-12T11:41:25.384Z,47.90
2018-02-12T11:43:53.740Z,47.90
2018-02-12T11:46:21.307Z,47.90
2018-02-12T11:48:48.963Z,48.00
2018-02-12T11:51:35.878Z,48.10
2018-02-12T11:54:04.260Z,48.80
2018-02-12T11:56:31.866Z,48.20
2018-02-12T11:58:59.452Z,48.40
2018-02-12T12:01:27.334Z,48.40
2018-02-12T12:03:54.904Z,48.50
2018-02-12T12:06:22.530Z,48.60
2018-02-12T12:08:50.127Z,48.70
2018-02-12T12:11:17.694Z,48.70
2018-02-12T12:13:45.259Z,48.80
2018-02-12T12:16:20.105Z,48.90
2018-02-12T12:18:48.435Z,49.00
2018-02-12T12:21:16.051Z,48.90
2018-02-12T12:23:44.416Z,48.90
2018-02-12T12:26:12.056Z,48.90
2018-02-12T12:28:39.647Z,49.00
2018-02-12T12:31:08.014Z,49.10
2018-02-12T12:33:35.591Z,48.90
2018-02-12T12:36:03.938Z,49.00
2018-02-12T12:38:31.534Z,49.00
2018-02-12T12:40:59.870Z,49.10
2018-02-12T12:43:27.460Z,49.10
2018-02-12T12:45:55.079Z,49.30
2018-02-12T12:48:22.731Z,49.30
2018-02-12T12:50:50.311Z,49.40
2018-02-12T12:53:17.943Z,49.50
2018-02-12T12:55:56.391Z,49.20
2018-02-12T12:58:23.988Z,49.00
2018-02-12T13:00:52.996Z,48.50
2018-02-12T13:03:21.326Z,48.80
2018-02-12T13:05:48.928Z,48.80
2018-02-12T13:08:17.282Z,48.60
2018-02-12T13:10:44.872Z,48.60
2018-02-12T13:13:13.268Z,48.70
2018-02-12T13:15:40.864Z,48.60
2018-02-12T13:18:08.460Z,48.80
2018-02-12T13:20:36.043Z,48.70
2018-02-12T13:23:04.412Z,49.10
2018-02-12T13:25:40.427Z,49.10
2018-02-12T13:28:08.012Z,49.10
2018-02-12T13:30:35.617Z,49.10
2018-02-12T13:33:03.229Z,49.10
2018-02-12T13:35:30.806Z,49.00
2018-02-12T13:37:58.390Z,49.10
2018-02-12T13:40:26.848Z,49.40
2018-02-12T13:42:54.420Z,49.30
2018-02-12T13:45:29.954Z,49.40
2018-02-12T13:47:57.540Z,49.30
2018-02-12T13:50:25.882Z,49.50
2018-02-12T13:52:54.514Z,49.40
2018-02-12T13:55:22.873Z,49.50
2018-02-12T13:57:53.606Z,49.40
2018-02-12T14:00:21.986Z,49.50
2018-02-12T14:02:50.343Z,49.50
2018-02-12T14:05:17.945Z,49.40
2018-02-12T14:07:45.532Z,49.40
2018-02-12T14:10:13.881Z,49.50
2018-02-12T14:12:42.251Z,49.70
2018-02-12T14:15:09.862Z,49.70
2018-02-12T14:17:37.471Z,49.70
2018-02-12T14:20:45.056Z,49.70
2018-02-12T14:23:12.632Z,49.70
2018-02-12T14:25:41.000Z,49.50
2018-02-12T14:28:08.576Z,49.50
2018-02-12T14:30:36.922Z,49.50
2018-02-12T14:33:04.511Z,49.60
2018-02-12T14:35:32.855Z,49.10
2018-02-12T14:38:00.431Z,49.10
2018-02-12T14:40:28.034Z,49.10
2018-02-12T14:43:10.844Z,49.20
2018-02-12T14:45:39.207Z,49.20
2018-02-12T14:48:08.304Z,48.70
2018-02-12T14:50:36.634Z,48.80
2018-02-12T14:53:05.281Z,48.50
2018-02-12T14:55:33.614Z,48.90
2018-02-12T14:58:01.177Z,48.90
2018-02-12T15:00:49.840Z,49.00
2018-02-12T15:03:17.422Z,49.00
2018-02-12T15:05:45.769Z,49.80
2018-02-12T15:08:13.383Z,49.10
2018-02-12T15:10:40.964Z,49.10
2018-02-12T15:13:08.549Z,49.00
2018-02-12T15:15:36.144Z,49.10
2018-02-12T15:18:03.739Z,49.10
2018-02-12T15:20:31.300Z,49.30
2018-02-12T15:22:58.897Z,49.20
2018-02-12T15:25:34.280Z,49.30
2018-02-12T15:28:02.639Z,49.50
2018-02-12T15:30:30.214Z,49.50
2018-02-12T15:32:58.577Z,49.90
2018-02-12T15:35:26.191Z,49.40
2018-02-12T15:38:17.883Z,49.50
2018-02-12T15:40:46.264Z,49.50
2018-02-12T15:43:14.617Z,49.50
2018-02-12T15:45:42.191Z,49.50
2018-02-12T15:48:09.799Z,49.50
2018-02-12T15:50:50.851Z,49.70
2018-02-12T15:53:19.199Z,49.70
2018-02-12T15:55:46.773Z,49.70
2018-02-12T15:58:14.356Z,49.70
2018-02-12T16:00:44.542Z,49.50
2018-02-12T16:03:12.137Z,49.50
2018-02-12T16:05:40.481Z,49.50
2018-02-12T16:08:08.097Z,49.50
2018-02-12T16:10:35.687Z,49.50
2018-02-12T16:13:03.271Z,49.30
2018-02-12T16:15:38.210Z,49.10
2018-02-12T16:18:05.774Z,49.10
2018-02-12T16:20:33.353Z,49.10
2018-02-12T16:23:01.729Z,49.30
2018-02-12T16:25:30.072Z,49.40
2018-02-12T16:27:57.652Z,49.30
2018-02-12T16:30:25.322Z,49.40
2018-02-12T16:32:53.660Z,49.50
2018-02-12T16:35:21.232Z,49.40
2018-02-12T16:37:48.836Z,49.40
2018-02-12T16:40:17.191Z,49.30
2018-02-12T16:42:44.784Z,49.20
2018-02-12T16:45:13.160Z,50.30
2018-02-12T16:47:40.745Z,50.30
2018-02-12T16:50:08.320Z,49.00
2018-02-12T16:53:00.060Z,49.00
2018-02-12T16:55:27.649Z,48.80
2018-02-12T16:57:55.251Z,48.40
2018-02-12T17:00:22.887Z,48.30
2018-02-12T17:02:51.250Z,48.20
2018-02-12T17:05:18.831Z,48.20
2018-02-12T17:07:47.182Z,48.30
2018-02-12T17:10:14.817Z,48.20
2018-02-12T17:12:42.390Z,48.10
2018-02-12T17:15:10.046Z,48.20
2018-02-12T17:17:37.631Z,48.10
2018-02-12T17:20:05.218Z,47.90
2018-02-12T17:22:33.664Z,47.80
2018-02-12T17:25:01.396Z,47.80
2018-02-12T17:27:29.087Z,47.60
2018-02-12T17:29:56.716Z,47.80
2018-02-12T17:32:37.316Z,47.60
2018-02-12T17:35:04.933Z,47.70
2018-02-12T17:37:33.078Z,47.50
2018-02-12T17:40:00.669Z,47.60
2018-02-12T17:42:28.271Z,47.60
2018-02-12T17:44:55.860Z,47.90
2018-02-12T17:47:23.464Z,47.80
2018-02-12T17:49:51.050Z,47.80
2018-02-12T17:52:18.692Z,47.60
2018-02-12T17:54:46.262Z,47.60
2018-02-12T17:57:21.494Z,47.50
2018-02-12T17:59:49.075Z,47.50
2018-02-12T18:02:16.678Z,47.60
2018-02-12T18:04:45.148Z,47.70
2018-02-12T18:07:12.764Z,47.70
2018-02-12T18:10:01.548Z,47.80
2018-02-12T18:12:29.215Z,47.80
2018-02-12T18:14:56.799Z,48.00
2018-02-12T18:17:24.406Z,48.00
2018-02-12T18:19:52.136Z,48.10
2018-02-12T18:22:42.247Z,48.10
2018-02-12T18:25:09.873Z,48.10
2018-02-12T18:27:37.473Z,48.30
2018-02-12T18:30:05.076Z,48.30
2018-02-12T18:32:33.842Z,48.20
2018-02-12T18:35:01.429Z,48.20
2018-02-12T18:37:29.030Z,48.30
2018-02-12T18:40:14.617Z,48.20
2018-02-12T18:42:42.997Z,48.30
2018-02-12T18:45:11.386Z,48.30
2018-02-12T18:47:39.183Z,48.30
2018-02-12T18:50:06.883Z,48.20
2018-02-12T18:52:55.419Z,48.30
2018-02-12T18:55:23.076Z,48.30
2018-02-12T18:57:50.705Z,48.40
2018-02-12T19:00:18.283Z,48.30
2018-02-12T19:02:45.885Z,48.50
2018-02-12T19:05:13.490Z,48.50
2018-02-12T19:07:41.078Z,48.50
2018-02-12T19:10:08.750Z,48.50
2018-02-12T19:12:36.338Z,48.50
2018-02-12T19:15:04.689Z,48.70
2018-02-12T19:17:32.307Z,48.60
2018-02-12T19:19:59.891Z,48.80
2018-02-12T19:22:27.483Z,48.70
2018-02-12T19:24:55.091Z,48.70
2018-02-12T19:27:22.797Z,48.70
2018-02-12T19:29:50.379Z,48.70
2018-02-12T19:32:31.135Z,48.70
2018-02-12T19:34:59.500Z,48.60
2018-02-12T19:37:27.082Z,48.60
2018-02-12T19:39:54.692Z,48.70
2018-02-12T19:42:22.288Z,48.70
2018-02-12T19:44:49.878Z,48.70
2018-02-12T19:47:18.228Z,49.30
2018-02-12T19:49:45.820Z,48.70
2018-02-12T19:52:14.148Z,49.10
2018-02-12T19:54:41.733Z,48.70
2018-02-12T19:57:09.363Z,48.80
2018-02-12T19:59:36.939Z,48.80
2018-02-12T20:02:04.519Z,48.70
2018-02-12T20:04:32.179Z,48.50
2018-02-12T20:06:59.843Z,48.70
2018-02-12T20:09:27.512Z,48.70
2018-02-12T20:11:55.099Z,47.20
2018-02-12T20:14:23.542Z,47.10
2018-02-12T20:16:51.142Z,47.10
2018-02-12T20:19:19.608Z,47.30
2018-02-12T20:21:47.192Z,47.20
2018-02-12T20:24:15.563Z,47.40
2018-02-12T20:26:44.001Z,47.40
2018-02-12T20:29:11.669Z,47.30
2018-02-12T20:31:39.256Z,47.50
2018-02-12T20:34:06.910Z,47.60
2018-02-12T20:36:34.555Z,47.10
2018-02-12T20:39:02.163Z,47.50
2018-02-12T20:41:29.815Z,47.50
2018-02-12T20:43:58.190Z,47.70
2018-02-12T20:46:26.568Z,48.20
2018-02-12T20:48:54.221Z,47.80
2018-02-12T20:51:43.682Z,47.90
2018-02-12T20:54:11.271Z,47.90
2018-02-12T20:56:39.662Z,48.30
2018-02-12T20:59:08.690Z,48.10
2018-02-12T21:01:36.365Z,48.10
2018-02-12T21:04:03.952Z,48.10
2018-02-12T21:06:31.571Z,48.10
2018-02-12T21:08:59.285Z,48.20
2018-02-12T21:11:26.919Z,48.30
2018-02-12T21:13:54.533Z,48.40
2018-02-12T21:16:30.227Z,48.30
2018-02-12T21:18:57.848Z,48.20
2018-02-12T21:21:26.278Z,48.30
2018-02-12T21:23:53.959Z,48.20
2018-02-12T21:26:21.621Z,48.30
2018-02-12T21:29:07.894Z,48.30
2018-02-12T21:31:35.566Z,48.30
2018-02-12T21:34:03.204Z,48.30
2018-02-12T21:36:30.900Z,48.50
2018-02-12T21:38:58.508Z,48.40
2018-02-12T21:41:26.935Z,48.60
2018-02-12T21:43:54.515Z,48.50
2018-02-12T21:46:22.134Z,48.50
2018-02-12T21:48:49.694Z,48.60
2018-02-12T21:51:17.291Z,48.50
2018-02-12T21:53:44.899Z,48.50
2018-02-12T21:56:12.477Z,48.60
2018-02-12T21:58:40.064Z,48.60
2018-02-12T22:01:07.721Z,48.50
2018-02-12T22:03:35.297Z,48.50
2018-02-12T22:06:02.970Z,48.50
2018-02-12T22:08:31.345Z,48.60
2018-02-12T22:10:58.925Z,48.60
2018-02-12T22:13:27.392Z,49.10
2018-02-12T22:15:54.989Z,48.50
2018-02-12T22:18:22.603Z,48.60
2018-02-12T22:20:50.327Z,48.60
2018-02-12T22:23:35.154Z,48.60
2018-02-12T22:26:02.792Z,48.70
2018-02-12T22:28:30.402Z,48.60
2018-02-12T22:30:58.045Z,48.80
2018-02-12T22:33:26.389Z,49.30
2018-02-12T22:35:54.018Z,48.80
2018-02-12T22:38:22.372Z,49.10
2018-02-12T22:40:50.719Z,49.00
2018-02-12T22:43:18.386Z,49.00
2018-02-12T22:45:46.019Z,49.10
2018-02-12T22:48:13.695Z,49.20
2018-02-12T22:50:41.268Z,49.20
2018-02-12T22:53:08.925Z,49.20
2018-02-12T22:55:36.511Z,49.20
